WetterOnline ( http://www.wetteronline.de )

Wetter aktuell Ueckermünde

Aktuelles Wetter: Ueckermünde (7m)

6-stündlich | Neueste Meldungen
Ortszeit Temperatur Wetter
Mo, 16.07. 20:00 22.2° C leicht bewölkt
Mo, 16.07. 14:00 24.9° C wolkenlos
Mo, 16.07. 8:00 18.7° C leicht bewölkt
Mo, 16.07. 2:00 13.0° C wolkenlos
So, 15.07. 20:00 20.6° C wolkenlos
So, 15.07. 14:00 22.7° C wolkenlos
So, 15.07. 8:00 16.6° C wolkenlos
So, 15.07. 2:00 11.8° C wolkenlos
Ortszeit Temperatur Wetter
Mo, 16.07. 20:00 22.2° C leicht bewölkt
Mo, 16.07. 19:50 22.2° C wolkig
Mo, 16.07. 19:40 22.8° C wolkig
Mo, 16.07. 19:30 23.5° C wolkig
Mo, 16.07. 19:20 23.5° C wolkig
Mo, 16.07. 19:10 23.6° C wolkig
Mo, 16.07. 19:00 23.7° C leicht bewölkt
Mo, 16.07. 18:30 24.2° C leicht bewölkt
Mo, 16.07. 18:00 23.9° C wolkenlos
Mo, 16.07. 17:30 24.2° C fast wolkenlos
Mo, 16.07. 17:00 24.2° C wolkenlos
Ortszeit Relative Feuchte Sichtweite
Mo, 16.07. 20:00 68% 30 km
Mo, 16.07. 14:00 62% 23 km
Mo, 16.07. 8:00 87% 12 km
Mo, 16.07. 2:00 99% 7 km
So, 15.07. 20:00 70% 30 km
So, 15.07. 14:00 63% 40 km
So, 15.07. 8:00 83% 30 km
So, 15.07. 2:00 93% 25 km
Ortszeit Relative Feuchte Sichtweite
Mo, 16.07. 20:00 68% 30 km
Mo, 16.07. 19:50 68% -
Mo, 16.07. 19:40 64% -
Mo, 16.07. 19:30 60% 24 km
Mo, 16.07. 19:20 60% -
Mo, 16.07. 19:10 60% -
Mo, 16.07. 19:00 62% 29 km
Mo, 16.07. 18:30 59% 25 km
Mo, 16.07. 18:00 61% 19 km
Mo, 16.07. 17:30 60% 20 km
Mo, 16.07. 17:00 57% 18 km
Ortszeit Niederschlagsmenge Niederschlagsart
Mo, 16.07. 20:00 0.0 l/m2 in 12 Std. -
Mo, 16.07. 14:00 0.0 l/m2 in 6 Std. -
Mo, 16.07. 8:00 0.0 l/m2 in 12 Std. -
Mo, 16.07. 2:00 0.0 l/m2 in 6 Std. -
So, 15.07. 20:00 0.0 l/m2 in 12 Std. -
So, 15.07. 14:00 0.0 l/m2 in 6 Std. -
So, 15.07. 8:00 0.0 l/m2 in 12 Std. -
So, 15.07. 2:00 0.0 l/m2 in 6 Std. -
Ortszeit Niederschlagsmenge Niederschlagsart
Mo, 16.07. 20:00 0.0 l/m2 in 1 Std. -
Mo, 16.07. 19:50 keine Meldung -
Mo, 16.07. 19:40 keine Meldung -
Mo, 16.07. 19:30 0.0 l/m2 in 1 Std. -
Mo, 16.07. 19:20 keine Meldung -
Mo, 16.07. 19:10 keine Meldung -
Mo, 16.07. 19:00 0.0 l/m2 in 1 Std. -
Mo, 16.07. 18:30 0.0 l/m2 in 1 Std. -
Mo, 16.07. 18:00 0.0 l/m2 in 1 Std. -
Mo, 16.07. 17:30 0.0 l/m2 in 1 Std. -
Mo, 16.07. 17:00 0.0 l/m2 in 1 Std. -
Ortszeit Stärke Spitze Richtung
km/h Bft. km/h Grad Sektor
Mo, 16.07. 20:00 11 2 25 30° NO
Mo, 16.07. 14:00 14 3 18 50° NO
Mo, 16.07. 8:00 6 1 11 310° NW
Mo, 16.07. 2:00 4 1 18 200° S
So, 15.07. 20:00 9 2 20 40° NO
So, 15.07. 14:00 11 2 18 40° NO
So, 15.07. 8:00 7 2 14 270° W
So, 15.07. 2:00 6 1 24 200° S
Ortszeit Stärke Spitze Richtung
km/h Bft. km/h Grad Sektor
Mo, 16.07. 20:00 11 2 18 30° NO
Mo, 16.07. 19:50 11 2 - 30° NO
Mo, 16.07. 19:40 13 3 - 30° NO
Mo, 16.07. 19:30 11 2 19 30° NO
Mo, 16.07. 19:20 11 2 - 30° NO
Mo, 16.07. 19:10 11 2 - 40° NO
Mo, 16.07. 19:00 11 2 22 40° NO
Mo, 16.07. 18:30 11 2 22 30° NO
Mo, 16.07. 18:00 11 2 22 40° NO
Mo, 16.07. 17:30 14 3 22 50° NO
Mo, 16.07. 17:00 13 3 22 50° NO
Ortszeit Untergrenze Bedeckung Gattung
total tief tief mittel hoch
Mo, 16.07. 20:00 8100 m 8/8 0/8 - - -
Mo, 16.07. 14:00 - 0/8 0/8 - - -
Mo, 16.07. 8:00 8400 m 7/8 0/8 - - -
Mo, 16.07. 2:00 - 0/8 0/8 - - -
So, 15.07. 20:00 - 0/8 0/8 - - -
So, 15.07. 14:00 - 0/8 0/8 - - -
So, 15.07. 8:00 - 0/8 0/8 - - -
So, 15.07. 2:00 - 0/8 0/8 - - -
Ortszeit Bedeckungsgrad in Achtel und Wolkenuntergrenze
Mo, 16.07. 20:00 8(8100m)
Mo, 16.07. 19:50 8(8100m)
Mo, 16.07. 19:40 8(8100m)
Mo, 16.07. 19:30 7(8700m) 7(9000m)
Mo, 16.07. 19:20 7(8700m) 7(9000m)
Mo, 16.07. 19:10 6(9000m) 7(9000m)
Mo, 16.07. 19:00 5(9000m) 7(9000m) 8(9000m)
Mo, 16.07. 18:30 3(9000m)
Mo, 16.07. 18:00 1(9000m)
Mo, 16.07. 17:30 2(10500m)
Mo, 16.07. 17:00 keine Wolken
Ortszeit Luftdruck NN (hPa) Tendenz (hPa in 3 Std.)
Mo, 16.07. 20:00 1013 - 0,3
Mo, 16.07. 14:00 1014 - 0,5
Mo, 16.07. 8:00 1015 - 0,7
Mo, 16.07. 2:00 1016 0,0
So, 15.07. 20:00 1016 - 0,6
So, 15.07. 14:00 1018 - 0,4
So, 15.07. 8:00 1018 + 0,1
So, 15.07. 2:00 1018 - 0,3
Ortszeit Luftdruck NN (hPa) Tendenz (hPa in 3 Std.)
Mo, 16.07. 20:00 1013 - 0,3
Mo, 16.07. 19:50 1013 keine Meldung
Mo, 16.07. 19:40 1013 keine Meldung
Mo, 16.07. 19:30 1013 - 0,5
Mo, 16.07. 19:20 1013 keine Meldung
Mo, 16.07. 19:10 1013 keine Meldung
Mo, 16.07. 19:00 1013 - 0,5
Mo, 16.07. 18:30 1013 - 0,9
Mo, 16.07. 18:00 1013 - 1,2
Mo, 16.07. 17:30 1013 - 1,3
Mo, 16.07. 17:00 1013 - 1,4
Ortszeit Schneehöhe (cm)
Mo, 16.07. 20:00 -
Mo, 16.07. 14:00 -
Mo, 16.07. 8:00 -
Mo, 16.07. 2:00 -
So, 15.07. 20:00 -
So, 15.07. 14:00 -
So, 15.07. 8:00 -
So, 15.07. 2:00 -
Ortszeit Schneehöhe (cm)
Mo, 16.07. 20:00 -
Mo, 16.07. 19:50 -
Mo, 16.07. 19:40 -
Mo, 16.07. 19:30 -
Mo, 16.07. 19:20 -
Mo, 16.07. 19:10 -
Mo, 16.07. 19:00 -
Mo, 16.07. 18:30 -
Mo, 16.07. 18:00 -
Mo, 16.07. 17:30 -
Mo, 16.07. 17:00 -
Link zu dieser Seite / Seite empfehlen

Das Wetter in ...